sensor_id;sensor_type;location;lat;lon;timestamp;temperature;humidity
25482;DHT22;13395;50.752;4.268;2023-07-02T00:01:45;17.90;99.90
25482;DHT22;13395;50.752;4.268;2023-07-02T00:04:10;17.90;99.90
25482;DHT22;13395;50.752;4.268;2023-07-02T00:06:39;17.90;99.90
25482;DHT22;13395;50.752;4.268;2023-07-02T00:09:06;18.00;99.90
25482;DHT22;13395;50.752;4.268;2023-07-02T00:11:32;17.90;99.90
25482;DHT22;13395;50.752;4.268;2023-07-02T00:13:57;17.90;99.90
25482;DHT22;13395;50.752;4.268;2023-07-02T00:16:23;17.90;99.90
25482;DHT22;13395;50.752;4.268;2023-07-02T00:18:48;17.80;99.90
25482;DHT22;13395;50.752;4.268;2023-07-02T00:21:18;17.80;99.90
25482;DHT22;13395;50.752;4.268;2023-07-02T00:23:44;17.90;99.90
25482;DHT22;13395;50.752;4.268;2023-07-02T00:26:10;18.00;99.90
25482;DHT22;13395;50.752;4.268;2023-07-02T00:28:36;17.80;99.90
25482;DHT22;13395;50.752;4.268;2023-07-02T00:31:01;17.80;99.90
25482;DHT22;13395;50.752;4.268;2023-07-02T00:33:27;17.80;99.90
25482;DHT22;13395;50.752;4.268;2023-07-02T00:35:54;17.70;99.90
25482;DHT22;13395;50.752;4.268;2023-07-02T00:38:20;17.80;99.90
25482;DHT22;13395;50.752;4.268;2023-07-02T00:40:45;17.70;99.90
25482;DHT22;13395;50.752;4.268;2023-07-02T00:43:11;17.80;99.90
25482;DHT22;13395;50.752;4.268;2023-07-02T00:45:39;17.70;99.90
25482;DHT22;13395;50.752;4.268;2023-07-02T00:48:05;17.70;99.90
25482;DHT22;13395;50.752;4.268;2023-07-02T00:50:31;17.60;99.90
25482;DHT22;13395;50.752;4.268;2023-07-02T00:52:57;17.60;99.90
25482;DHT22;13395;50.752;4.268;2023-07-02T00:55:23;17.70;99.90
25482;DHT22;13395;50.752;4.268;2023-07-02T00:57:49;17.60;99.90
25482;DHT22;13395;50.752;4.268;2023-07-02T01:00:15;17.60;99.90
25482;DHT22;13395;50.752;4.268;2023-07-02T01:02:41;17.50;99.90
25482;DHT22;13395;50.752;4.268;2023-07-02T01:05:14;17.60;99.90
25482;DHT22;13395;50.752;4.268;2023-07-02T01:07:40;17.60;99.90
25482;DHT22;13395;50.752;4.268;2023-07-02T01:10:06;17.50;99.90
25482;DHT22;13395;50.752;4.268;2023-07-02T01:12:32;17.40;99.90
25482;DHT22;13395;50.752;4.268;2023-07-02T01:15:00;17.40;99.90
25482;DHT22;13395;50.752;4.268;2023-07-02T01:17:28;17.40;99.90
25482;DHT22;13395;50.752;4.268;2023-07-02T01:19:56;17.50;99.90
25482;DHT22;13395;50.752;4.268;2023-07-02T01:22:26;17.50;99.90
25482;DHT22;13395;50.752;4.268;2023-07-02T01:24:52;17.50;99.90
25482;DHT22;13395;50.752;4.268;2023-07-02T01:27:18;17.50;99.90
25482;DHT22;13395;50.752;4.268;2023-07-02T01:29:44;17.50;99.90
25482;DHT22;13395;50.752;4.268;2023-07-02T01:32:13;17.50;99.90
25482;DHT22;13395;50.752;4.268;2023-07-02T01:34:39;17.40;99.90
25482;DHT22;13395;50.752;4.268;2023-07-02T01:37:05;17.50;99.90
25482;DHT22;13395;50.752;4.268;2023-07-02T01:39:31;17.50;99.90
25482;DHT22;13395;50.752;4.268;2023-07-02T01:42:11;17.50;99.90
25482;DHT22;13395;50.752;4.268;2023-07-02T01:44:37;17.50;99.90
25482;DHT22;13395;50.752;4.268;2023-07-02T01:47:03;17.50;99.90
25482;DHT22;13395;50.752;4.268;2023-07-02T01:49:29;17.50;99.90
25482;DHT22;13395;50.752;4.268;2023-07-02T01:51:55;17.60;99.90
25482;DHT22;13395;50.752;4.268;2023-07-02T01:54:26;17.50;99.90
25482;DHT22;13395;50.752;4.268;2023-07-02T01:56:53;17.40;99.90
25482;DHT22;13395;50.752;4.268;2023-07-02T01:59:19;17.50;99.90
25482;DHT22;13395;50.752;4.268;2023-07-02T02:01:44;17.50;99.90
25482;DHT22;13395;50.752;4.268;2023-07-02T02:04:10;17.50;99.90
25482;DHT22;13395;50.752;4.268;2023-07-02T02:06:37;17.60;99.90
25482;DHT22;13395;50.752;4.268;2023-07-02T02:09:04;17.60;99.90
25482;DHT22;13395;50.752;4.268;2023-07-02T02:11:30;17.50;99.90
25482;DHT22;13395;50.752;4.268;2023-07-02T02:13:57;17.60;99.90
25482;DHT22;13395;50.752;4.268;2023-07-02T02:16:23;17.50;99.90
25482;DHT22;13395;50.752;4.268;2023-07-02T02:18:49;17.60;99.90
25482;DHT22;13395;50.752;4.268;2023-07-02T02:21:17;17.50;99.90
25482;DHT22;13395;50.752;4.268;2023-07-02T02:23:43;17.50;99.90
25482;DHT22;13395;50.752;4.268;2023-07-02T02:26:09;17.40;99.90
25482;DHT22;13395;50.752;4.268;2023-07-02T02:28:35;17.30;99.90
25482;DHT22;13395;50.752;4.268;2023-07-02T02:31:00;17.20;99.90
25482;DHT22;13395;50.752;4.268;2023-07-02T02:33:26;17.30;99.90
25482;DHT22;13395;50.752;4.268;2023-07-02T02:35:52;17.30;99.90
25482;DHT22;13395;50.752;4.268;2023-07-02T02:38:17;17.20;99.90
25482;DHT22;13395;50.752;4.268;2023-07-02T02:40:43;17.30;99.90
25482;DHT22;13395;50.752;4.268;2023-07-02T02:43:09;17.10;99.90
25482;DHT22;13395;50.752;4.268;2023-07-02T02:45:34;17.10;99.90
25482;DHT22;13395;50.752;4.268;2023-07-02T02:48:00;17.20;99.90
25482;DHT22;13395;50.752;4.268;2023-07-02T02:50:25;17.10;99.90
25482;DHT22;13395;50.752;4.268;2023-07-02T02:52:51;17.20;99.90
25482;DHT22;13395;50.752;4.268;2023-07-02T02:55:16;17.10;99.90
25482;DHT22;13395;50.752;4.268;2023-07-02T02:57:42;17.10;99.90
25482;DHT22;13395;50.752;4.268;2023-07-02T03:00:09;17.10;99.90
25482;DHT22;13395;50.752;4.268;2023-07-02T03:02:35;17.10;99.90
25482;DHT22;13395;50.752;4.268;2023-07-02T03:05:01;17.00;99.90
25482;DHT22;13395;50.752;4.268;2023-07-02T03:07:28;17.10;99.90
25482;DHT22;13395;50.752;4.268;2023-07-02T03:09:53;16.90;99.90
25482;DHT22;13395;50.752;4.268;2023-07-02T03:12:19;16.80;99.90
25482;DHT22;13395;50.752;4.268;2023-07-02T03:14:44;16.80;99.90
25482;DHT22;13395;50.752;4.268;2023-07-02T03:17:10;16.80;99.90
25482;DHT22;13395;50.752;4.268;2023-07-02T03:19:35;16.80;99.90
25482;DHT22;13395;50.752;4.268;2023-07-02T03:22:01;16.80;99.90
25482;DHT22;13395;50.752;4.268;2023-07-02T03:24:27;16.90;99.90
25482;DHT22;13395;50.752;4.268;2023-07-02T03:26:52;16.80;99.90
25482;DHT22;13395;50.752;4.268;2023-07-02T03:29:18;16.70;99.90
25482;DHT22;13395;50.752;4.268;2023-07-02T03:31:45;16.70;99.90
25482;DHT22;13395;50.752;4.268;2023-07-02T03:34:11;16.70;99.90
25482;DHT22;13395;50.752;4.268;2023-07-02T03:36:37;16.80;99.90
25482;DHT22;13395;50.752;4.268;2023-07-02T03:39:04;16.80;99.90
25482;DHT22;13395;50.752;4.268;2023-07-02T03:41:29;16.80;99.90
25482;DHT22;13395;50.752;4.268;2023-07-02T03:43:55;16.80;99.90
25482;DHT22;13395;50.752;4.268;2023-07-02T03:46:21;16.90;99.90
25482;DHT22;13395;50.752;4.268;2023-07-02T03:48:46;16.90;99.90
25482;DHT22;13395;50.752;4.268;2023-07-02T03:51:12;16.80;99.90
25482;DHT22;13395;50.752;4.268;2023-07-02T03:53:43;16.80;99.90
25482;DHT22;13395;50.752;4.268;2023-07-02T03:56:09;16.80;99.90
25482;DHT22;13395;50.752;4.268;2023-07-02T03:58:40;16.70;99.90
25482;DHT22;13395;50.752;4.268;2023-07-02T04:01:05;16.70;99.90
25482;DHT22;13395;50.752;4.268;2023-07-02T04:03:31;16.60;99.90
25482;DHT22;13395;50.752;4.268;2023-07-02T04:05:57;16.70;99.90
25482;DHT22;13395;50.752;4.268;2023-07-02T04:08:22;16.60;99.90
25482;DHT22;13395;50.752;4.268;2023-07-02T04:10:50;16.70;99.90
25482;DHT22;13395;50.752;4.268;2023-07-02T04:13:15;16.70;99.90
25482;DHT22;13395;50.752;4.268;2023-07-02T04:15:41;16.70;99.90
25482;DHT22;13395;50.752;4.268;2023-07-02T04:18:07;16.70;99.90
25482;DHT22;13395;50.752;4.268;2023-07-02T04:20:33;16.70;99.90
25482;DHT22;13395;50.752;4.268;2023-07-02T04:22:58;16.80;99.90
25482;DHT22;13395;50.752;4.268;2023-07-02T04:25:24;16.80;99.90
25482;DHT22;13395;50.752;4.268;2023-07-02T04:27:50;16.80;99.90
25482;DHT22;13395;50.752;4.268;2023-07-02T04:30:16;16.80;99.90
25482;DHT22;13395;50.752;4.268;2023-07-02T04:32:41;16.90;99.90
25482;DHT22;13395;50.752;4.268;2023-07-02T04:35:08;16.90;99.90
25482;DHT22;13395;50.752;4.268;2023-07-02T04:37:34;17.10;99.90
25482;DHT22;13395;50.752;4.268;2023-07-02T04:40:00;17.20;99.90
25482;DHT22;13395;50.752;4.268;2023-07-02T04:42:26;17.40;99.90
25482;DHT22;13395;50.752;4.268;2023-07-02T04:44:55;17.40;99.90
25482;DHT22;13395;50.752;4.268;2023-07-02T04:47:21;17.40;99.90
25482;DHT22;13395;50.752;4.268;2023-07-02T04:49:47;17.30;99.90
25482;DHT22;13395;50.752;4.268;2023-07-02T04:52:12;17.40;99.90
25482;DHT22;13395;50.752;4.268;2023-07-02T04:54:38;17.30;99.90
25482;DHT22;13395;50.752;4.268;2023-07-02T04:57:04;17.30;99.90
25482;DHT22;13395;50.752;4.268;2023-07-02T04:59:29;17.30;99.90
25482;DHT22;13395;50.752;4.268;2023-07-02T05:01:55;17.40;99.90
25482;DHT22;13395;50.752;4.268;2023-07-02T05:04:20;17.50;99.90
25482;DHT22;13395;50.752;4.268;2023-07-02T05:06:46;17.50;99.90
25482;DHT22;13395;50.752;4.268;2023-07-02T05:09:12;17.50;99.90
25482;DHT22;13395;50.752;4.268;2023-07-02T05:11:37;17.60;99.90
25482;DHT22;13395;50.752;4.268;2023-07-02T05:14:03;17.70;99.90
25482;DHT22;13395;50.752;4.268;2023-07-02T05:16:28;17.70;99.90
25482;DHT22;13395;50.752;4.268;2023-07-02T05:18:54;18.10;99.90
25482;DHT22;13395;50.752;4.268;2023-07-02T05:21:20;18.30;99.90
25482;DHT22;13395;50.752;4.268;2023-07-02T05:23:45;18.60;99.90
25482;DHT22;13395;50.752;4.268;2023-07-02T05:26:11;19.00;99.90
25482;DHT22;13395;50.752;4.268;2023-07-02T05:28:37;19.20;99.90
25482;DHT22;13395;50.752;4.268;2023-07-02T05:31:02;19.10;99.90
25482;DHT22;13395;50.752;4.268;2023-07-02T05:33:28;19.00;99.90
25482;DHT22;13395;50.752;4.268;2023-07-02T05:35:53;18.90;99.90
25482;DHT22;13395;50.752;4.268;2023-07-02T05:38:19;18.80;99.90
25482;DHT22;13395;50.752;4.268;2023-07-02T05:40:45;19.20;99.90
25482;DHT22;13395;50.752;4.268;2023-07-02T05:43:11;19.80;99.90
25482;DHT22;13395;50.752;4.268;2023-07-02T05:45:37;20.20;99.90
25482;DHT22;13395;50.752;4.268;2023-07-02T05:48:03;20.20;99.90
25482;DHT22;13395;50.752;4.268;2023-07-02T05:50:28;20.30;99.90
25482;DHT22;13395;50.752;4.268;2023-07-02T05:52:54;20.10;99.90
25482;DHT22;13395;50.752;4.268;2023-07-02T05:55:19;19.80;99.90
25482;DHT22;13395;50.752;4.268;2023-07-02T05:57:45;19.60;99.90
25482;DHT22;13395;50.752;4.268;2023-07-02T06:00:12;19.60;99.90
25482;DHT22;13395;50.752;4.268;2023-07-02T06:02:38;19.80;99.90
25482;DHT22;13395;50.752;4.268;2023-07-02T06:05:04;20.20;99.90
25482;DHT22;13395;50.752;4.268;2023-07-02T06:07:30;20.50;99.90
25482;DHT22;13395;50.752;4.268;2023-07-02T06:09:56;20.70;99.90
25482;DHT22;13395;50.752;4.268;2023-07-02T06:12:22;20.70;99.90
25482;DHT22;13395;50.752;4.268;2023-07-02T06:14:50;20.50;99.90
25482;DHT22;13395;50.752;4.268;2023-07-02T06:17:16;20.50;99.90
25482;DHT22;13395;50.752;4.268;2023-07-02T06:19:42;20.40;99.90
25482;DHT22;13395;50.752;4.268;2023-07-02T06:22:07;20.40;99.90
25482;DHT22;13395;50.752;4.268;2023-07-02T06:24:33;20.70;99.90
25482;DHT22;13395;50.752;4.268;2023-07-02T06:26:58;20.90;99.90
25482;DHT22;13395;50.752;4.268;2023-07-02T06:29:24;20.80;99.90
25482;DHT22;13395;50.752;4.268;2023-07-02T06:31:50;20.80;99.90
25482;DHT22;13395;50.752;4.268;2023-07-02T06:34:16;21.00;99.90
25482;DHT22;13395;50.752;4.268;2023-07-02T06:36:42;21.30;99.90
25482;DHT22;13395;50.752;4.268;2023-07-02T06:39:08;21.40;99.90
25482;DHT22;13395;50.752;4.268;2023-07-02T06:41:37;21.60;99.90
25482;DHT22;13395;50.752;4.268;2023-07-02T06:44:02;22.10;99.90
25482;DHT22;13395;50.752;4.268;2023-07-02T06:46:29;22.70;99.90
25482;DHT22;13395;50.752;4.268;2023-07-02T06:48:55;23.50;99.90
25482;DHT22;13395;50.752;4.268;2023-07-02T06:51:20;23.80;99.90
25482;DHT22;13395;50.752;4.268;2023-07-02T06:53:46;24.00;99.90
25482;DHT22;13395;50.752;4.268;2023-07-02T06:56:12;24.30;99.90
25482;DHT22;13395;50.752;4.268;2023-07-02T06:58:41;24.10;99.90
25482;DHT22;13395;50.752;4.268;2023-07-02T07:01:07;24.40;99.90
25482;DHT22;13395;50.752;4.268;2023-07-02T07:03:34;24.80;99.90
25482;DHT22;13395;50.752;4.268;2023-07-02T07:05:59;25.00;99.90
25482;DHT22;13395;50.752;4.268;2023-07-02T07:08:25;24.90;99.90
25482;DHT22;13395;50.752;4.268;2023-07-02T07:10:50;25.20;99.90
25482;DHT22;13395;50.752;4.268;2023-07-02T07:13:16;25.70;99.90
25482;DHT22;13395;50.752;4.268;2023-07-02T07:15:42;26.10;99.90
25482;DHT22;13395;50.752;4.268;2023-07-02T07:18:08;26.60;98.00
25482;DHT22;13395;50.752;4.268;2023-07-02T07:20:34;27.10;96.90
25482;DHT22;13395;50.752;4.268;2023-07-02T07:23:01;26.90;95.70
25482;DHT22;13395;50.752;4.268;2023-07-02T07:25:27;26.70;95.70
25482;DHT22;13395;50.752;4.268;2023-07-02T07:27:52;26.10;96.20
25482;DHT22;13395;50.752;4.268;2023-07-02T07:30:19;25.80;95.70
25482;DHT22;13395;50.752;4.268;2023-07-02T07:32:54;25.40;95.30
25482;DHT22;13395;50.752;4.268;2023-07-02T07:35:22;25.30;96.00
25482;DHT22;13395;50.752;4.268;2023-07-02T07:37:48;25.20;96.50
25482;DHT22;13395;50.752;4.268;2023-07-02T07:40:14;25.20;96.30
25482;DHT22;13395;50.752;4.268;2023-07-02T07:42:41;24.90;95.80
25482;DHT22;13395;50.752;4.268;2023-07-02T07:45:09;24.50;96.70
25482;DHT22;13395;50.752;4.268;2023-07-02T07:47:34;24.30;97.60
25482;DHT22;13395;50.752;4.268;2023-07-02T07:50:00;24.30;98.30
25482;DHT22;13395;50.752;4.268;2023-07-02T07:52:25;24.40;98.20
25482;DHT22;13395;50.752;4.268;2023-07-02T07:54:51;24.10;98.20
25482;DHT22;13395;50.752;4.268;2023-07-02T07:57:16;24.00;98.70
25482;DHT22;13395;50.752;4.268;2023-07-02T07:59:42;23.90;99.00
25482;DHT22;13395;50.752;4.268;2023-07-02T08:02:08;24.20;99.00
25482;DHT22;13395;50.752;4.268;2023-07-02T08:04:34;24.40;98.70
25482;DHT22;13395;50.752;4.268;2023-07-02T08:07:00;24.30;97.90
25482;DHT22;13395;50.752;4.268;2023-07-02T08:09:25;24.50;97.70
25482;DHT22;13395;50.752;4.268;2023-07-02T08:11:51;24.40;97.70
25482;DHT22;13395;50.752;4.268;2023-07-02T08:14:17;24.50;97.20
25482;DHT22;13395;50.752;4.268;2023-07-02T08:16:45;24.40;96.80
25482;DHT22;13395;50.752;4.268;2023-07-02T08:19:11;24.20;97.10
25482;DHT22;13395;50.752;4.268;2023-07-02T08:21:36;24.00;98.10
25482;DHT22;13395;50.752;4.268;2023-07-02T08:24:03;24.30;98.70
25482;DHT22;13395;50.752;4.268;2023-07-02T08:26:29;24.50;97.60
25482;DHT22;13395;50.752;4.268;2023-07-02T08:28:54;24.70;96.20
25482;DHT22;13395;50.752;4.268;2023-07-02T08:31:20;24.50;96.70
25482;DHT22;13395;50.752;4.268;2023-07-02T08:33:46;24.70;95.80
25482;DHT22;13395;50.752;4.268;2023-07-02T08:36:13;24.80;97.20
25482;DHT22;13395;50.752;4.268;2023-07-02T08:38:41;24.80;96.00
25482;DHT22;13395;50.752;4.268;2023-07-02T08:41:08;24.70;96.20
25482;DHT22;13395;50.752;4.268;2023-07-02T08:43:35;24.60;96.60
25482;DHT22;13395;50.752;4.268;2023-07-02T08:46:01;24.50;96.50
25482;DHT22;13395;50.752;4.268;2023-07-02T08:48:30;24.60;95.60
25482;DHT22;13395;50.752;4.268;2023-07-02T08:50:56;24.00;96.10
25482;DHT22;13395;50.752;4.268;2023-07-02T08:53:22;23.70;96.50
25482;DHT22;13395;50.752;4.268;2023-07-02T08:55:55;23.60;97.10
25482;DHT22;13395;50.752;4.268;2023-07-02T08:58:21;23.60;97.00
25482;DHT22;13395;50.752;4.268;2023-07-02T09:01:13;23.50;97.50
25482;DHT22;13395;50.752;4.268;2023-07-02T09:03:40;23.70;98.10
25482;DHT22;13395;50.752;4.268;2023-07-02T09:06:06;23.60;97.00
25482;DHT22;13395;50.752;4.268;2023-07-02T09:08:33;23.50;96.40
25482;DHT22;13395;50.752;4.268;2023-07-02T09:11:11;23.40;96.20
25482;DHT22;13395;50.752;4.268;2023-07-02T09:13:51;23.20;95.80
25482;DHT22;13395;50.752;4.268;2023-07-02T09:16:29;22.70;96.50
25482;DHT22;13395;50.752;4.268;2023-07-02T09:19:06;22.60;97.70
25482;DHT22;13395;50.752;4.268;2023-07-02T09:21:42;22.40;98.30
25482;DHT22;13395;50.752;4.268;2023-07-02T09:24:19;22.40;98.40
25482;DHT22;13395;50.752;4.268;2023-07-02T09:26:46;22.20;98.50
25482;DHT22;13395;50.752;4.268;2023-07-02T09:29:18;22.10;98.50
25482;DHT22;13395;50.752;4.268;2023-07-02T09:31:47;21.90;97.90
25482;DHT22;13395;50.752;4.268;2023-07-02T09:34:14;21.70;98.20
25482;DHT22;13395;50.752;4.268;2023-07-02T09:36:40;21.80;98.80
25482;DHT22;13395;50.752;4.268;2023-07-02T09:39:12;21.90;98.30
25482;DHT22;13395;50.752;4.268;2023-07-02T09:41:40;22.60;98.00
25482;DHT22;13395;50.752;4.268;2023-07-02T09:44:07;23.70;96.70
25482;DHT22;13395;50.752;4.268;2023-07-02T09:46:34;24.60;94.80
25482;DHT22;13395;50.752;4.268;2023-07-02T09:49:01;25.10;92.90
25482;DHT22;13395;50.752;4.268;2023-07-02T09:51:27;25.20;92.20
25482;DHT22;13395;50.752;4.268;2023-07-02T09:53:53;25.10;91.90
25482;DHT22;13395;50.752;4.268;2023-07-02T09:56:19;24.60;91.80
25482;DHT22;13395;50.752;4.268;2023-07-02T09:58:46;24.10;92.50
25482;DHT22;13395;50.752;4.268;2023-07-02T10:01:12;23.60;92.80
25482;DHT22;13395;50.752;4.268;2023-07-02T10:03:38;23.20;93.80
25482;DHT22;13395;50.752;4.268;2023-07-02T10:06:04;23.30;94.30
25482;DHT22;13395;50.752;4.268;2023-07-02T10:08:30;23.30;93.20
25482;DHT22;13395;50.752;4.268;2023-07-02T10:11:09;23.30;93.00
25482;DHT22;13395;50.752;4.268;2023-07-02T10:13:35;23.90;93.60
25482;DHT22;13395;50.752;4.268;2023-07-02T10:16:02;25.90;91.80
25482;DHT22;13395;50.752;4.268;2023-07-02T10:18:27;26.70;87.90
25482;DHT22;13395;50.752;4.268;2023-07-02T10:20:53;26.30;86.60
25482;DHT22;13395;50.752;4.268;2023-07-02T10:23:19;25.80;85.30
25482;DHT22;13395;50.752;4.268;2023-07-02T10:25:44;25.30;88.90
25482;DHT22;13395;50.752;4.268;2023-07-02T10:28:22;24.80;89.30
25482;DHT22;13395;50.752;4.268;2023-07-02T10:30:52;24.80;87.30
25482;DHT22;13395;50.752;4.268;2023-07-02T10:33:19;24.80;88.60
25482;DHT22;13395;50.752;4.268;2023-07-02T10:35:49;25.30;90.00
25482;DHT22;13395;50.752;4.268;2023-07-02T10:38:24;26.30;87.20
25482;DHT22;13395;50.752;4.268;2023-07-02T10:40:54;26.30;84.90
25482;DHT22;13395;50.752;4.268;2023-07-02T10:43:25;25.80;88.00
25482;DHT22;13395;50.752;4.268;2023-07-02T10:45:53;25.70;88.20
25482;DHT22;13395;50.752;4.268;2023-07-02T10:48:18;25.60;87.00
25482;DHT22;13395;50.752;4.268;2023-07-02T10:50:44;25.70;86.40
25482;DHT22;13395;50.752;4.268;2023-07-02T10:53:15;25.50;86.10
25482;DHT22;13395;50.752;4.268;2023-07-02T10:55:42;25.10;86.70
25482;DHT22;13395;50.752;4.268;2023-07-02T10:58:09;24.60;88.50
25482;DHT22;13395;50.752;4.268;2023-07-02T11:00:48;24.30;88.30
25482;DHT22;13395;50.752;4.268;2023-07-02T11:05:47;23.60;90.30
25482;DHT22;13395;50.752;4.268;2023-07-02T11:08:13;23.50;90.10
25482;DHT22;13395;50.752;4.268;2023-07-02T11:10:39;23.30;90.40
25482;DHT22;13395;50.752;4.268;2023-07-02T11:13:16;23.10;89.90
25482;DHT22;13395;50.752;4.268;2023-07-02T11:15:42;22.80;87.20
25482;DHT22;13395;50.752;4.268;2023-07-02T11:18:11;22.40;89.90
25482;DHT22;13395;50.752;4.268;2023-07-02T11:20:38;22.30;90.90
25482;DHT22;13395;50.752;4.268;2023-07-02T11:23:04;22.50;91.40
25482;DHT22;13395;50.752;4.268;2023-07-02T11:25:30;23.90;90.50
25482;DHT22;13395;50.752;4.268;2023-07-02T11:28:05;25.50;87.60
25482;DHT22;13395;50.752;4.268;2023-07-02T11:30:31;26.10;81.70
25482;DHT22;13395;50.752;4.268;2023-07-02T11:32:57;25.70;80.10
25482;DHT22;13395;50.752;4.268;2023-07-02T11:35:34;25.30;81.60
25482;DHT22;13395;50.752;4.268;2023-07-02T11:38:00;25.10;82.70
25482;DHT22;13395;50.752;4.268;2023-07-02T11:40:26;25.10;82.60
25482;DHT22;13395;50.752;4.268;2023-07-02T11:42:51;24.90;84.60
25482;DHT22;13395;50.752;4.268;2023-07-02T11:45:17;25.10;83.50
25482;DHT22;13395;50.752;4.268;2023-07-02T11:47:43;26.60;82.00
25482;DHT22;13395;50.752;4.268;2023-07-02T11:50:08;27.10;79.90
25482;DHT22;13395;50.752;4.268;2023-07-02T11:52:34;28.50;77.40
25482;DHT22;13395;50.752;4.268;2023-07-02T11:55:00;29.40;76.30
25482;DHT22;13395;50.752;4.268;2023-07-02T11:57:25;30.10;70.30
25482;DHT22;13395;50.752;4.268;2023-07-02T11:59:51;29.60;71.20
25482;DHT22;13395;50.752;4.268;2023-07-02T12:02:18;28.50;73.30
25482;DHT22;13395;50.752;4.268;2023-07-02T12:04:44;27.90;73.30
25482;DHT22;13395;50.752;4.268;2023-07-02T12:07:09;27.20;75.70
25482;DHT22;13395;50.752;4.268;2023-07-02T12:09:36;27.40;78.00
25482;DHT22;13395;50.752;4.268;2023-07-02T12:12:02;27.60;75.40
25482;DHT22;13395;50.752;4.268;2023-07-02T12:14:28;27.40;74.20
25482;DHT22;13395;50.752;4.268;2023-07-02T12:16:53;27.10;73.50
25482;DHT22;13395;50.752;4.268;2023-07-02T12:19:19;27.20;74.70
25482;DHT22;13395;50.752;4.268;2023-07-02T12:21:44;27.40;74.90
25482;DHT22;13395;50.752;4.268;2023-07-02T12:24:10;27.20;74.90
25482;DHT22;13395;50.752;4.268;2023-07-02T12:26:36;27.90;76.00
25482;DHT22;13395;50.752;4.268;2023-07-02T12:29:02;28.20;73.20
25482;DHT22;13395;50.752;4.268;2023-07-02T12:31:29;28.10;74.20
25482;DHT22;13395;50.752;4.268;2023-07-02T12:33:55;28.60;72.40
25482;DHT22;13395;50.752;4.268;2023-07-02T12:36:21;28.60;72.30
25482;DHT22;13395;50.752;4.268;2023-07-02T12:38:46;28.60;70.70
25482;DHT22;13395;50.752;4.268;2023-07-02T12:41:12;28.50;71.60
25482;DHT22;13395;50.752;4.268;2023-07-02T12:43:37;29.60;74.00
25482;DHT22;13395;50.752;4.268;2023-07-02T12:46:03;30.40;66.50
25482;DHT22;13395;50.752;4.268;2023-07-02T12:48:28;30.10;68.50
25482;DHT22;13395;50.752;4.268;2023-07-02T12:50:55;30.10;67.90
25482;DHT22;13395;50.752;4.268;2023-07-02T12:53:22;30.10;67.70
25482;DHT22;13395;50.752;4.268;2023-07-02T12:55:47;29.80;65.00
25482;DHT22;13395;50.752;4.268;2023-07-02T12:58:13;29.30;66.10
25482;DHT22;13395;50.752;4.268;2023-07-02T13:00:38;28.40;67.00
25482;DHT22;13395;50.752;4.268;2023-07-02T13:03:04;27.70;68.10
25482;DHT22;13395;50.752;4.268;2023-07-02T13:05:29;26.90;72.10
25482;DHT22;13395;50.752;4.268;2023-07-02T13:07:55;26.50;72.00
25482;DHT22;13395;50.752;4.268;2023-07-02T13:10:21;26.00;72.90
25482;DHT22;13395;50.752;4.268;2023-07-02T13:12:46;26.10;73.60
25482;DHT22;13395;50.752;4.268;2023-07-02T13:15:12;26.30;75.00
25482;DHT22;13395;50.752;4.268;2023-07-02T13:17:38;26.40;73.70
25482;DHT22;13395;50.752;4.268;2023-07-02T13:20:04;26.30;72.50
25482;DHT22;13395;50.752;4.268;2023-07-02T13:22:30;26.10;73.90
25482;DHT22;13395;50.752;4.268;2023-07-02T13:24:56;25.90;73.60
25482;DHT22;13395;50.752;4.268;2023-07-02T13:27:21;25.60;73.10
25482;DHT22;13395;50.752;4.268;2023-07-02T13:29:47;25.40;73.80
25482;DHT22;13395;50.752;4.268;2023-07-02T13:32:13;25.20;74.10
25482;DHT22;13395;50.752;4.268;2023-07-02T13:34:38;25.10;75.50
25482;DHT22;13395;50.752;4.268;2023-07-02T13:37:04;24.80;75.60
25482;DHT22;13395;50.752;4.268;2023-07-02T13:39:30;24.90;77.20
25482;DHT22;13395;50.752;4.268;2023-07-02T13:41:56;25.10;79.20
25482;DHT22;13395;50.752;4.268;2023-07-02T13:44:22;25.00;76.80
25482;DHT22;13395;50.752;4.268;2023-07-02T13:46:48;24.70;76.30
25482;DHT22;13395;50.752;4.268;2023-07-02T13:49:14;24.50;77.30
25482;DHT22;13395;50.752;4.268;2023-07-02T13:51:40;24.80;78.20
25482;DHT22;13395;50.752;4.268;2023-07-02T13:54:06;25.20;78.60
25482;DHT22;13395;50.752;4.268;2023-07-02T13:56:31;25.50;79.00
25482;DHT22;13395;50.752;4.268;2023-07-02T14:01:23;25.00;76.60
25482;DHT22;13395;50.752;4.268;2023-07-02T14:03:49;24.80;77.30
25482;DHT22;13395;50.752;4.268;2023-07-02T14:06:15;24.70;77.70
25482;DHT22;13395;50.752;4.268;2023-07-02T14:08:41;24.70;79.60
25482;DHT22;13395;50.752;4.268;2023-07-02T14:11:07;24.90;77.90
25482;DHT22;13395;50.752;4.268;2023-07-02T14:13:32;25.00;78.60
25482;DHT22;13395;50.752;4.268;2023-07-02T14:15:59;25.10;78.90
25482;DHT22;13395;50.752;4.268;2023-07-02T14:18:24;25.20;78.50
25482;DHT22;13395;50.752;4.268;2023-07-02T14:20:50;25.50;78.10
25482;DHT22;13395;50.752;4.268;2023-07-02T14:23:16;25.60;75.40
25482;DHT22;13395;50.752;4.268;2023-07-02T14:25:44;25.50;75.40
25482;DHT22;13395;50.752;4.268;2023-07-02T14:28:10;25.70;78.10
25482;DHT22;13395;50.752;4.268;2023-07-02T14:30:36;25.80;75.10
25482;DHT22;13395;50.752;4.268;2023-07-02T14:33:02;25.90;74.30
25482;DHT22;13395;50.752;4.268;2023-07-02T14:35:28;26.00;76.50
25482;DHT22;13395;50.752;4.268;2023-07-02T14:37:56;26.10;73.90
25482;DHT22;13395;50.752;4.268;2023-07-02T14:40:22;26.00;75.10
25482;DHT22;13395;50.752;4.268;2023-07-02T14:42:47;25.60;73.90
25482;DHT22;13395;50.752;4.268;2023-07-02T14:45:13;25.40;75.80
25482;DHT22;13395;50.752;4.268;2023-07-02T14:47:39;25.20;76.50
25482;DHT22;13395;50.752;4.268;2023-07-02T14:50:05;25.00;78.50
25482;DHT22;13395;50.752;4.268;2023-07-02T14:52:31;24.90;78.00
25482;DHT22;13395;50.752;4.268;2023-07-02T14:54:56;24.80;78.90
25482;DHT22;13395;50.752;4.268;2023-07-02T14:57:25;24.80;77.90
25482;DHT22;13395;50.752;4.268;2023-07-02T14:59:50;24.50;77.90
25482;DHT22;13395;50.752;4.268;2023-07-02T15:02:17;24.30;80.50
25482;DHT22;13395;50.752;4.268;2023-07-02T15:04:44;24.60;78.10
25482;DHT22;13395;50.752;4.268;2023-07-02T15:07:10;24.70;77.70
25482;DHT22;13395;50.752;4.268;2023-07-02T15:09:36;24.70;78.90
25482;DHT22;13395;50.752;4.268;2023-07-02T15:12:02;24.60;77.40
25482;DHT22;13395;50.752;4.268;2023-07-02T15:14:27;24.40;77.40
25482;DHT22;13395;50.752;4.268;2023-07-02T15:16:53;24.20;77.00
25482;DHT22;13395;50.752;4.268;2023-07-02T15:19:19;24.00;79.00
25482;DHT22;13395;50.752;4.268;2023-07-02T15:21:44;23.90;79.00
25482;DHT22;13395;50.752;4.268;2023-07-02T15:24:13;24.00;80.20
25482;DHT22;13395;50.752;4.268;2023-07-02T15:26:39;24.10;79.20
25482;DHT22;13395;50.752;4.268;2023-07-02T15:29:05;24.20;79.50
25482;DHT22;13395;50.752;4.268;2023-07-02T15:31:31;24.40;78.20